sensor_id;sensor_type;location;lat;lon;timestamp;temperature;humidity
4090;DHT22;2059;48.538;12.146;2022-07-05T00:00:14;21.50;99.90
4090;DHT22;2059;48.538;12.146;2022-07-05T00:05:16;21.40;99.90
4090;DHT22;2059;48.538;12.146;2022-07-05T00:10:19;21.40;99.90
4090;DHT22;2059;48.538;12.146;2022-07-05T00:15:21;21.40;99.90
4090;DHT22;2059;48.538;12.146;2022-07-05T00:20:24;21.40;99.90
4090;DHT22;2059;48.538;12.146;2022-07-05T00:25:27;21.40;99.90
4090;DHT22;2059;48.538;12.146;2022-07-05T00:30:29;21.50;99.90
4090;DHT22;2059;48.538;12.146;2022-07-05T00:35:31;21.40;99.90
4090;DHT22;2059;48.538;12.146;2022-07-05T00:40:34;21.40;99.90
4090;DHT22;2059;48.538;12.146;2022-07-05T00:45:36;21.20;99.90
4090;DHT22;2059;48.538;12.146;2022-07-05T00:50:39;21.30;99.90
4090;DHT22;2059;48.538;12.146;2022-07-05T00:55:44;21.30;99.90
4090;DHT22;2059;48.538;12.146;2022-07-05T01:00:46;21.30;99.90
4090;DHT22;2059;48.538;12.146;2022-07-05T01:05:49;21.20;99.90
4090;DHT22;2059;48.538;12.146;2022-07-05T01:10:52;21.20;99.90
4090;DHT22;2059;48.538;12.146;2022-07-05T01:15:55;21.20;99.90
4090;DHT22;2059;48.538;12.146;2022-07-05T01:20:58;21.20;99.90
4090;DHT22;2059;48.538;12.146;2022-07-05T01:26:01;21.20;99.90
4090;DHT22;2059;48.538;12.146;2022-07-05T01:31:04;21.10;99.90
4090;DHT22;2059;48.538;12.146;2022-07-05T01:36:06;21.10;99.90
4090;DHT22;2059;48.538;12.146;2022-07-05T01:41:09;21.20;99.90
4090;DHT22;2059;48.538;12.146;2022-07-05T01:46:11;21.20;99.90
4090;DHT22;2059;48.538;12.146;2022-07-05T01:51:20;21.20;99.90
4090;DHT22;2059;48.538;12.146;2022-07-05T01:56:24;21.20;99.90
4090;DHT22;2059;48.538;12.146;2022-07-05T02:01:33;21.10;99.90
4090;DHT22;2059;48.538;12.146;2022-07-05T02:06:35;21.20;99.90
4090;DHT22;2059;48.538;12.146;2022-07-05T02:11:39;21.20;99.90
4090;DHT22;2059;48.538;12.146;2022-07-05T02:16:41;21.10;99.90
4090;DHT22;2059;48.538;12.146;2022-07-05T02:21:42;21.10;99.90
4090;DHT22;2059;48.538;12.146;2022-07-05T02:26:46;21.20;99.90
4090;DHT22;2059;48.538;12.146;2022-07-05T02:31:48;21.10;99.90
4090;DHT22;2059;48.538;12.146;2022-07-05T02:36:50;21.10;99.90
4090;DHT22;2059;48.538;12.146;2022-07-05T02:41:53;21.10;99.90
4090;DHT22;2059;48.538;12.146;2022-07-05T02:46:55;21.10;99.90
4090;DHT22;2059;48.538;12.146;2022-07-05T02:51:57;21.00;99.90
4090;DHT22;2059;48.538;12.146;2022-07-05T02:57:00;20.90;99.90
4090;DHT22;2059;48.538;12.146;2022-07-05T03:02:02;20.90;99.90
4090;DHT22;2059;48.538;12.146;2022-07-05T03:07:04;20.90;99.90
4090;DHT22;2059;48.538;12.146;2022-07-05T03:12:08;21.00;99.90
4090;DHT22;2059;48.538;12.146;2022-07-05T03:17:09;20.90;99.90
4090;DHT22;2059;48.538;12.146;2022-07-05T03:22:11;20.90;99.90
4090;DHT22;2059;48.538;12.146;2022-07-05T03:27:15;20.80;99.90
4090;DHT22;2059;48.538;12.146;2022-07-05T03:32:16;20.80;99.90
4090;DHT22;2059;48.538;12.146;2022-07-05T03:37:18;20.90;99.90
4090;DHT22;2059;48.538;12.146;2022-07-05T03:42:21;20.80;99.90
4090;DHT22;2059;48.538;12.146;2022-07-05T03:47:23;20.70;99.90
4090;DHT22;2059;48.538;12.146;2022-07-05T03:52:25;20.70;99.90
4090;DHT22;2059;48.538;12.146;2022-07-05T03:57:28;20.70;99.90
4090;DHT22;2059;48.538;12.146;2022-07-05T04:02:30;20.70;99.90
4090;DHT22;2059;48.538;12.146;2022-07-05T04:07:33;20.70;99.90
4090;DHT22;2059;48.538;12.146;2022-07-05T04:12:36;20.70;99.90
4090;DHT22;2059;48.538;12.146;2022-07-05T04:17:46;20.70;99.90
4090;DHT22;2059;48.538;12.146;2022-07-05T04:22:49;20.90;99.90
4090;DHT22;2059;48.538;12.146;2022-07-05T04:27:53;20.90;99.90
4090;DHT22;2059;48.538;12.146;2022-07-05T04:32:56;20.90;99.90
4090;DHT22;2059;48.538;12.146;2022-07-05T04:37:57;20.90;99.90
4090;DHT22;2059;48.538;12.146;2022-07-05T04:43:01;20.90;99.90
4090;DHT22;2059;48.538;12.146;2022-07-05T04:48:03;21.00;99.90
4090;DHT22;2059;48.538;12.146;2022-07-05T04:53:05;21.10;99.90
4090;DHT22;2059;48.538;12.146;2022-07-05T04:58:08;20.90;99.90
4090;DHT22;2059;48.538;12.146;2022-07-05T05:03:12;20.90;99.90
4090;DHT22;2059;48.538;12.146;2022-07-05T05:08:14;20.90;99.90
4090;DHT22;2059;48.538;12.146;2022-07-05T05:13:17;21.00;99.90
4090;DHT22;2059;48.538;12.146;2022-07-05T05:18:19;21.10;99.90
4090;DHT22;2059;48.538;12.146;2022-07-05T05:23:24;21.20;99.90
4090;DHT22;2059;48.538;12.146;2022-07-05T05:28:28;21.30;99.90
4090;DHT22;2059;48.538;12.146;2022-07-05T05:33:30;21.60;99.90
4090;DHT22;2059;48.538;12.146;2022-07-05T05:38:32;21.70;99.90
4090;DHT22;2059;48.538;12.146;2022-07-05T05:43:35;21.80;99.90
4090;DHT22;2059;48.538;12.146;2022-07-05T05:48:37;21.80;99.90
4090;DHT22;2059;48.538;12.146;2022-07-05T05:53:39;21.70;99.90
4090;DHT22;2059;48.538;12.146;2022-07-05T05:58:42;21.90;99.90
4090;DHT22;2059;48.538;12.146;2022-07-05T06:03:44;21.90;99.90
4090;DHT22;2059;48.538;12.146;2022-07-05T06:08:45;22.00;99.90
4090;DHT22;2059;48.538;12.146;2022-07-05T06:13:49;22.00;99.90
4090;DHT22;2059;48.538;12.146;2022-07-05T06:18:50;22.10;99.90
4090;DHT22;2059;48.538;12.146;2022-07-05T06:23:52;22.10;99.90
4090;DHT22;2059;48.538;12.146;2022-07-05T06:28:56;21.90;99.90
4090;DHT22;2059;48.538;12.146;2022-07-05T06:33:57;21.70;99.90
4090;DHT22;2059;48.538;12.146;2022-07-05T06:38:59;21.70;99.90
4090;DHT22;2059;48.538;12.146;2022-07-05T06:44:03;21.80;99.90
4090;DHT22;2059;48.538;12.146;2022-07-05T06:49:05;22.00;99.90
4090;DHT22;2059;48.538;12.146;2022-07-05T06:54:07;22.10;99.90
4090;DHT22;2059;48.538;12.146;2022-07-05T06:59:10;22.30;99.90
4090;DHT22;2059;48.538;12.146;2022-07-05T07:04:12;22.50;99.90
4090;DHT22;2059;48.538;12.146;2022-07-05T07:09:14;22.70;99.90
4090;DHT22;2059;48.538;12.146;2022-07-05T07:14:24;22.70;99.90
4090;DHT22;2059;48.538;12.146;2022-07-05T07:19:26;22.70;99.90
4090;DHT22;2059;48.538;12.146;2022-07-05T07:24:27;23.10;99.90
4090;DHT22;2059;48.538;12.146;2022-07-05T07:29:33;23.40;99.90
4090;DHT22;2059;48.538;12.146;2022-07-05T07:34:36;23.70;99.90
4090;DHT22;2059;48.538;12.146;2022-07-05T07:39:38;23.90;99.90
4090;DHT22;2059;48.538;12.146;2022-07-05T07:44:41;23.90;99.90
4090;DHT22;2059;48.538;12.146;2022-07-05T07:49:43;23.80;99.90
4090;DHT22;2059;48.538;12.146;2022-07-05T07:54:45;23.60;98.30
4090;DHT22;2059;48.538;12.146;2022-07-05T07:59:48;23.60;98.80
4090;DHT22;2059;48.538;12.146;2022-07-05T08:04:50;23.60;99.00
4090;DHT22;2059;48.538;12.146;2022-07-05T08:09:52;23.80;99.20
4090;DHT22;2059;48.538;12.146;2022-07-05T08:14:55;24.00;99.70
4090;DHT22;2059;48.538;12.146;2022-07-05T08:19:57;24.10;99.90
4090;DHT22;2059;48.538;12.146;2022-07-05T08:25:17;24.00;99.50
4090;DHT22;2059;48.538;12.146;2022-07-05T08:30:20;24.10;99.70
4090;DHT22;2059;48.538;12.146;2022-07-05T08:35:22;24.30;99.00
4090;DHT22;2059;48.538;12.146;2022-07-05T08:40:26;24.60;98.60
4090;DHT22;2059;48.538;12.146;2022-07-05T08:45:32;25.10;97.90
4090;DHT22;2059;48.538;12.146;2022-07-05T08:50:35;25.40;97.70
4090;DHT22;2059;48.538;12.146;2022-07-05T08:55:39;25.60;96.50
4090;DHT22;2059;48.538;12.146;2022-07-05T09:00:43;25.70;96.90
4090;DHT22;2059;48.538;12.146;2022-07-05T09:05:45;26.00;96.60
4090;DHT22;2059;48.538;12.146;2022-07-05T09:10:48;26.10;97.00
4090;DHT22;2059;48.538;12.146;2022-07-05T09:15:52;26.60;96.20
4090;DHT22;2059;48.538;12.146;2022-07-05T09:21:11;26.70;95.90
4090;DHT22;2059;48.538;12.146;2022-07-05T09:26:13;27.30;95.20
4090;DHT22;2059;48.538;12.146;2022-07-05T09:31:26;27.60;93.20
4090;DHT22;2059;48.538;12.146;2022-07-05T09:36:28;27.90;93.10
4090;DHT22;2059;48.538;12.146;2022-07-05T09:41:47;27.30;92.40
4090;DHT22;2059;48.538;12.146;2022-07-05T09:47:06;26.90;91.50
4090;DHT22;2059;48.538;12.146;2022-07-05T09:52:08;26.80;91.80
4090;DHT22;2059;48.538;12.146;2022-07-05T09:57:24;27.00;91.80
4090;DHT22;2059;48.538;12.146;2022-07-05T10:02:36;27.60;89.90
4090;DHT22;2059;48.538;12.146;2022-07-05T10:07:40;28.00;90.30
4090;DHT22;2059;48.538;12.146;2022-07-05T10:12:43;28.30;88.10
4090;DHT22;2059;48.538;12.146;2022-07-05T10:17:53;28.60;86.70
4090;DHT22;2059;48.538;12.146;2022-07-05T10:22:56;28.80;79.60
4090;DHT22;2059;48.538;12.146;2022-07-05T10:27:58;28.90;79.50
4090;DHT22;2059;48.538;12.146;2022-07-05T10:33:03;28.80;75.60
4090;DHT22;2059;48.538;12.146;2022-07-05T10:38:09;28.40;79.50
4090;DHT22;2059;48.538;12.146;2022-07-05T10:43:13;28.30;79.10
4090;DHT22;2059;48.538;12.146;2022-07-05T10:48:19;28.50;72.70
4090;DHT22;2059;48.538;12.146;2022-07-05T10:53:22;28.50;75.90
4090;DHT22;2059;48.538;12.146;2022-07-05T10:58:29;28.50;73.30
4090;DHT22;2059;48.538;12.146;2022-07-05T11:03:36;28.30;69.60
4090;DHT22;2059;48.538;12.146;2022-07-05T11:14:35;28.60;67.90
4090;DHT22;2059;48.538;12.146;2022-07-05T11:20:01;28.70;69.20
4090;DHT22;2059;48.538;12.146;2022-07-05T11:25:05;28.70;67.90
4090;DHT22;2059;48.538;12.146;2022-07-05T11:30:21;28.20;66.90
4090;DHT22;2059;48.538;12.146;2022-07-05T11:35:31;28.30;67.20
4090;DHT22;2059;48.538;12.146;2022-07-05T11:40:35;28.40;66.70
4090;DHT22;2059;48.538;12.146;2022-07-05T11:45:38;28.70;66.20
4090;DHT22;2059;48.538;12.146;2022-07-05T11:50:41;28.90;66.20
4090;DHT22;2059;48.538;12.146;2022-07-05T11:55:43;28.80;66.00
4090;DHT22;2059;48.538;12.146;2022-07-05T12:00:53;28.60;68.10
4090;DHT22;2059;48.538;12.146;2022-07-05T12:05:57;28.90;69.40
4090;DHT22;2059;48.538;12.146;2022-07-05T12:10:59;28.70;67.30
4090;DHT22;2059;48.538;12.146;2022-07-05T12:16:18;28.70;64.40
4090;DHT22;2059;48.538;12.146;2022-07-05T12:21:22;28.80;60.70
4090;DHT22;2059;48.538;12.146;2022-07-05T12:26:24;29.10;61.80
4090;DHT22;2059;48.538;12.146;2022-07-05T12:31:26;29.20;61.10
4090;DHT22;2059;48.538;12.146;2022-07-05T12:36:29;29.10;62.80
4090;DHT22;2059;48.538;12.146;2022-07-05T12:41:31;29.10;60.30
4090;DHT22;2059;48.538;12.146;2022-07-05T12:46:36;29.30;62.50
4090;DHT22;2059;48.538;12.146;2022-07-05T12:51:41;29.50;62.40
4090;DHT22;2059;48.538;12.146;2022-07-05T12:56:46;29.70;60.10
4090;DHT22;2059;48.538;12.146;2022-07-05T13:02:06;29.60;60.80
4090;DHT22;2059;48.538;12.146;2022-07-05T13:07:09;29.60;56.40
4090;DHT22;2059;48.538;12.146;2022-07-05T13:12:13;29.60;59.20
4090;DHT22;2059;48.538;12.146;2022-07-05T13:17:17;29.10;59.70
4090;DHT22;2059;48.538;12.146;2022-07-05T13:22:20;29.10;59.30
4090;DHT22;2059;48.538;12.146;2022-07-05T13:27:22;28.70;60.40
4090;DHT22;2059;48.538;12.146;2022-07-05T13:32:24;28.60;60.50
4090;DHT22;2059;48.538;12.146;2022-07-05T13:37:27;28.50;60.20
4090;DHT22;2059;48.538;12.146;2022-07-05T13:42:29;28.30;60.00
4090;DHT22;2059;48.538;12.146;2022-07-05T13:47:31;28.50;58.80
4090;DHT22;2059;48.538;12.146;2022-07-05T13:52:34;28.80;55.30
4090;DHT22;2059;48.538;12.146;2022-07-05T13:57:36;28.80;54.50
4090;DHT22;2059;48.538;12.146;2022-07-05T14:02:38;29.00;55.40
4090;DHT22;2059;48.538;12.146;2022-07-05T14:07:41;29.10;56.10
4090;DHT22;2059;48.538;12.146;2022-07-05T14:12:43;29.30;53.80
4090;DHT22;2059;48.538;12.146;2022-07-05T14:17:45;29.30;56.00
4090;DHT22;2059;48.538;12.146;2022-07-05T14:22:48;29.40;53.30
4090;DHT22;2059;48.538;12.146;2022-07-05T17:10:27;49.80;25.20
4090;DHT22;2059;48.538;12.146;2022-07-05T17:15:29;48.60;25.60
4090;DHT22;2059;48.538;12.146;2022-07-05T17:20:31;48.20;25.30
4090;DHT22;2059;48.538;12.146;2022-07-05T17:25:34;43.30;27.90
4090;DHT22;2059;48.538;12.146;2022-07-05T17:30:36;37.80;31.40
4090;DHT22;2059;48.538;12.146;2022-07-05T17:35:38;34.70;33.90
4090;DHT22;2059;48.538;12.146;2022-07-05T17:40:41;32.90;35.70
4090;DHT22;2059;48.538;12.146;2022-07-05T17:45:43;31.60;37.40
4090;DHT22;2059;48.538;12.146;2022-07-05T17:50:45;30.70;38.40
4090;DHT22;2059;48.538;12.146;2022-07-05T17:55:48;30.00;40.30
4090;DHT22;2059;48.538;12.146;2022-07-05T18:00:50;29.50;41.10
4090;DHT22;2059;48.538;12.146;2022-07-05T18:05:52;29.10;41.70
4090;DHT22;2059;48.538;12.146;2022-07-05T18:10:56;28.80;42.90
4090;DHT22;2059;48.538;12.146;2022-07-05T18:15:57;28.40;43.50
4090;DHT22;2059;48.538;12.146;2022-07-05T18:21:03;28.20;44.10
4090;DHT22;2059;48.538;12.146;2022-07-05T18:26:06;28.00;43.80
4090;DHT22;2059;48.538;12.146;2022-07-05T18:31:08;27.80;44.80
4090;DHT22;2059;48.538;12.146;2022-07-05T18:36:10;27.70;45.10
4090;DHT22;2059;48.538;12.146;2022-07-05T18:41:13;27.60;46.40
4090;DHT22;2059;48.538;12.146;2022-07-05T18:46:16;27.30;46.90
4090;DHT22;2059;48.538;12.146;2022-07-05T18:51:18;27.10;46.90
4090;DHT22;2059;48.538;12.146;2022-07-05T18:56:21;27.00;47.30
4090;DHT22;2059;48.538;12.146;2022-07-05T19:01:23;26.80;47.50
4090;DHT22;2059;48.538;12.146;2022-07-05T19:06:26;26.60;48.70
4090;DHT22;2059;48.538;12.146;2022-07-05T19:11:47;26.40;50.50
4090;DHT22;2059;48.538;12.146;2022-07-05T19:17:06;26.30;51.90
4090;DHT22;2059;48.538;12.146;2022-07-05T19:22:08;26.00;52.50
4090;DHT22;2059;48.538;12.146;2022-07-05T19:27:13;25.90;53.30
4090;DHT22;2059;48.538;12.146;2022-07-05T19:32:15;25.80;53.50
4090;DHT22;2059;48.538;12.146;2022-07-05T19:37:17;25.60;54.10
4090;DHT22;2059;48.538;12.146;2022-07-05T19:42:20;25.50;54.90
4090;DHT22;2059;48.538;12.146;2022-07-05T19:47:22;25.30;55.30
4090;DHT22;2059;48.538;12.146;2022-07-05T19:52:24;25.10;56.10
4090;DHT22;2059;48.538;12.146;2022-07-05T19:57:29;25.10;56.40
4090;DHT22;2059;48.538;12.146;2022-07-05T20:02:31;25.00;56.30
4090;DHT22;2059;48.538;12.146;2022-07-05T20:07:33;24.90;55.90
4090;DHT22;2059;48.538;12.146;2022-07-05T20:12:36;24.80;56.90
4090;DHT22;2059;48.538;12.146;2022-07-05T20:17:38;24.60;57.60
4090;DHT22;2059;48.538;12.146;2022-07-05T20:22:40;24.40;58.50
4090;DHT22;2059;48.538;12.146;2022-07-05T20:27:43;24.20;59.80
4090;DHT22;2059;48.538;12.146;2022-07-05T20:32:45;24.20;60.30
4090;DHT22;2059;48.538;12.146;2022-07-05T20:37:47;23.90;61.80
4090;DHT22;2059;48.538;12.146;2022-07-05T20:42:50;23.60;63.30
4090;DHT22;2059;48.538;12.146;2022-07-05T20:47:52;23.50;63.40
4090;DHT22;2059;48.538;12.146;2022-07-05T20:52:54;23.40;63.80
4090;DHT22;2059;48.538;12.146;2022-07-05T20:57:58;23.40;63.50
4090;DHT22;2059;48.538;12.146;2022-07-05T21:03:00;23.30;64.90
4090;DHT22;2059;48.538;12.146;2022-07-05T21:08:03;23.20;64.90
4090;DHT22;2059;48.538;12.146;2022-07-05T21:13:07;23.20;65.80
4090;DHT22;2059;48.538;12.146;2022-07-05T21:18:08;23.00;67.00
4090;DHT22;2059;48.538;12.146;2022-07-05T21:23:11;23.00;67.10
4090;DHT22;2059;48.538;12.146;2022-07-05T21:28:15;23.00;67.50
4090;DHT22;2059;48.538;12.146;2022-07-05T21:33:17;22.90;68.10
4090;DHT22;2059;48.538;12.146;2022-07-05T21:38:19;22.70;68.70
4090;DHT22;2059;48.538;12.146;2022-07-05T21:43:22;22.70;69.10
4090;DHT22;2059;48.538;12.146;2022-07-05T21:48:24;22.50;70.10
4090;DHT22;2059;48.538;12.146;2022-07-05T21:53:26;22.30;71.40
4090;DHT22;2059;48.538;12.146;2022-07-05T21:58:29;22.30;70.50
4090;DHT22;2059;48.538;12.146;2022-07-05T22:03:51;22.10;71.90
4090;DHT22;2059;48.538;12.146;2022-07-05T22:09:10;22.00;72.60
4090;DHT22;2059;48.538;12.146;2022-07-05T22:14:14;22.00;72.80
4090;DHT22;2059;48.538;12.146;2022-07-05T22:19:16;21.90;73.60
4090;DHT22;2059;48.538;12.146;2022-07-05T22:24:17;21.70;75.30
4090;DHT22;2059;48.538;12.146;2022-07-05T22:29:21;21.60;75.40
4090;DHT22;2059;48.538;12.146;2022-07-05T22:34:23;21.60;75.80
4090;DHT22;2059;48.538;12.146;2022-07-05T22:39:25;21.40;76.80
4090;DHT22;2059;48.538;12.146;2022-07-05T22:44:28;21.40;76.10
4090;DHT22;2059;48.538;12.146;2022-07-05T22:49:30;21.40;76.50
4090;DHT22;2059;48.538;12.146;2022-07-05T22:54:31;21.30;76.20
4090;DHT22;2059;48.538;12.146;2022-07-05T22:59:35;21.30;75.80
4090;DHT22;2059;48.538;12.146;2022-07-05T23:04:37;21.30;76.30
4090;DHT22;2059;48.538;12.146;2022-07-05T23:09:38;21.30;74.50
4090;DHT22;2059;48.538;12.146;2022-07-05T23:14:42;21.30;74.10
4090;DHT22;2059;48.538;12.146;2022-07-05T23:19:44;21.10;76.20
4090;DHT22;2059;48.538;12.146;2022-07-05T23:24:45;20.80;76.90
4090;DHT22;2059;48.538;12.146;2022-07-05T23:30:02;20.80;76.80
4090;DHT22;2059;48.538;12.146;2022-07-05T23:35:05;20.70;77.10
4090;DHT22;2059;48.538;12.146;2022-07-05T23:40:07;20.70;77.30
4090;DHT22;2059;48.538;12.146;2022-07-05T23:45:11;20.50;78.50
4090;DHT22;2059;48.538;12.146;2022-07-05T23:50:12;20.40;79.20
4090;DHT22;2059;48.538;12.146;2022-07-05T23:55:14;20.30;80.20
